createdAt,value
2019-04-21T00:03:48.602Z,9.97
2019-04-21T00:06:51.062Z,9.37
2019-04-21T00:09:39.637Z,9.80
2019-04-21T00:12:22.781Z,9.37
2019-04-21T00:15:07.407Z,9.97
2019-04-21T00:20:38.198Z,10.37
2019-04-21T00:23:32.821Z,10.17
2019-04-21T00:26:23.873Z,10.23
2019-04-21T00:29:25.627Z,10.20
2019-04-21T00:35:04.698Z,11.03
2019-04-21T00:38:07.904Z,11.07
2019-04-21T00:41:23.589Z,10.43
2019-04-21T00:44:07.378Z,10.63
2019-04-21T00:46:58.332Z,12.07
2019-04-21T00:49:56.606Z,10.43
2019-04-21T00:53:00.916Z,10.43
2019-04-21T00:55:59.434Z,10.40
2019-04-21T00:58:53.418Z,10.63
2019-04-21T01:01:46.299Z,10.80
2019-04-21T01:04:33.821Z,10.97
2019-04-21T01:07:36.015Z,10.50
2019-04-21T01:10:22.152Z,10.50
2019-04-21T01:13:36.273Z,10.83
2019-04-21T01:16:37.502Z,10.60
2019-04-21T01:19:15.728Z,10.63
2019-04-21T01:25:04.325Z,11.10
2019-04-21T01:27:53.695Z,11.37
2019-04-21T01:30:59.451Z,11.03
2019-04-21T01:34:08.326Z,10.43
2019-04-21T01:42:39.434Z,11.03
2019-04-21T01:45:44.822Z,11.13
2019-04-21T01:48:24.706Z,11.00
2019-04-21T01:51:12.904Z,10.47
2019-04-21T01:54:31.754Z,10.33
2019-04-21T02:00:22.356Z,10.50
2019-04-21T02:03:34.455Z,10.90
2019-04-21T02:06:11.088Z,11.50
2019-04-21T02:11:50.687Z,11.13
2019-04-21T02:14:41.643Z,11.50
2019-04-21T02:20:24.413Z,10.93
2019-04-21T02:26:03.532Z,10.97
2019-04-21T02:28:56.567Z,11.70
2019-04-21T02:37:38.362Z,12.57
2019-04-21T02:40:11.510Z,12.97
2019-04-21T02:43:05.399Z,12.97
2019-04-21T02:46:10.312Z,12.97
2019-04-21T02:51:27.395Z,12.77
2019-04-21T02:57:41.469Z,12.97
2019-04-21T03:03:25.069Z,13.17
2019-04-21T03:06:27.031Z,12.80
2019-04-21T03:09:16.053Z,13.77
2019-04-21T03:12:05.263Z,12.27
2019-04-21T03:21:16.440Z,14.07
2019-04-21T03:24:01.175Z,13.63
2019-04-21T03:38:27.074Z,14.20
2019-04-21T03:41:10.755Z,14.30
2019-04-21T03:44:00.521Z,14.47
2019-04-21T03:46:52.587Z,13.97
2019-04-21T04:01:15.877Z,14.90
2019-04-21T04:07:42.469Z,14.53
2019-04-21T04:10:34.740Z,14.80
2019-04-21T04:13:19.904Z,14.13
2019-04-21T04:21:41.942Z,15.57
2019-04-21T04:24:22.310Z,15.23
2019-04-21T04:33:12.856Z,16.20
2019-04-21T04:36:01.703Z,15.70
2019-04-21T04:41:32.269Z,16.17
2019-04-21T04:50:33.760Z,14.97
2019-04-21T04:56:18.210Z,17.33
2019-04-21T05:04:58.319Z,17.67
2019-04-21T05:10:29.692Z,16.40
2019-04-21T05:13:17.158Z,15.97
2019-04-21T05:16:01.594Z,17.43
2019-04-21T05:27:39.976Z,17.83
2019-04-21T05:33:57.644Z,18.13
2019-04-21T05:37:04.109Z,17.90
2019-04-21T05:43:20.219Z,18.40
2019-04-21T05:46:21.216Z,17.50
2019-04-21T05:48:57.891Z,18.47
2019-04-21T05:52:03.614Z,18.67
2019-04-21T05:54:59.054Z,19.37
2019-04-21T05:57:39.681Z,17.63
2019-04-21T06:00:39.039Z,19.60
2019-04-21T06:08:46.951Z,18.77
2019-04-21T06:14:25.580Z,18.93
2019-04-21T06:17:19.184Z,19.40
2019-04-21T06:20:01.778Z,18.73
2019-04-21T06:22:49.034Z,18.73
2019-04-21T06:25:50.000Z,18.47
2019-04-21T06:28:27.083Z,18.77
2019-04-21T06:33:48.792Z,17.40
2019-04-21T06:42:35.447Z,18.17
2019-04-21T06:48:21.954Z,17.27
2019-04-21T06:57:01.976Z,16.30
2019-04-21T06:59:50.020Z,17.00
2019-04-21T07:05:27.106Z,17.80
2019-04-21T07:14:24.346Z,16.40
2019-04-21T07:17:08.911Z,16.70
2019-04-21T07:20:06.923Z,15.20
2019-04-21T07:25:32.756Z,15.53
2019-04-21T07:31:27.733Z,15.23
2019-04-21T07:34:27.093Z,14.57
2019-04-21T07:36:55.976Z,15.40
2019-04-21T07:39:40.307Z,14.87
2019-04-21T07:42:18.091Z,16.53
2019-04-21T07:45:08.792Z,16.00
2019-04-21T07:48:19.265Z,14.93
2019-04-21T07:54:06.305Z,14.13
2019-04-21T07:56:33.208Z,14.47
2019-04-21T07:59:48.539Z,14.40
2019-04-21T08:02:23.829Z,14.53
2019-04-21T08:05:16.055Z,14.17
2019-04-21T08:07:55.914Z,13.43
2019-04-21T08:10:47.073Z,13.60
2019-04-21T08:13:48.810Z,13.43
2019-04-21T08:16:30.426Z,13.57
2019-04-21T08:22:51.806Z,14.20
2019-04-21T08:25:54.893Z,13.40
2019-04-21T08:28:39.203Z,12.50
2019-04-21T08:31:25.768Z,12.27
2019-04-21T08:34:22.618Z,12.60
2019-04-21T08:36:56.733Z,12.83
2019-04-21T08:39:59.397Z,12.80
2019-04-21T08:42:36.795Z,13.77
2019-04-21T08:45:21.992Z,12.83
2019-04-21T08:48:05.848Z,12.83
2019-04-21T08:50:55.040Z,12.27
2019-04-21T08:53:42.759Z,12.10
2019-04-21T08:56:43.517Z,13.00
2019-04-21T09:03:02.489Z,10.90
2019-04-21T09:05:45.130Z,10.93
2019-04-21T09:08:39.610Z,10.30
2019-04-21T09:11:28.886Z,11.17
2019-04-21T09:14:13.683Z,10.93
2019-04-21T09:16:56.265Z,10.87
2019-04-21T09:22:30.691Z,10.73
2019-04-21T09:25:19.673Z,12.37
2019-04-21T09:28:07.025Z,12.97
2019-04-21T09:30:46.727Z,14.00
2019-04-21T09:33:33.440Z,12.00
2019-04-21T09:36:20.102Z,12.30
2019-04-21T09:42:06.610Z,12.20
2019-04-21T09:44:59.457Z,13.15
2019-04-21T09:50:57.535Z,11.73
2019-04-21T09:53:43.302Z,12.95
2019-04-21T09:56:34.375Z,12.28
2019-04-21T09:59:18.046Z,12.00
2019-04-21T10:02:06.389Z,12.90
2019-04-21T10:07:44.177Z,13.03
2019-04-21T10:10:34.909Z,11.30
2019-04-21T10:13:18.351Z,11.80
2019-04-21T10:16:19.651Z,11.75
2019-04-21T10:19:06.914Z,11.75
2019-04-21T10:21:50.158Z,12.30
2019-04-21T10:24:34.048Z,12.05
2019-04-21T10:27:17.201Z,12.95
2019-04-21T10:30:00.033Z,11.83
2019-04-21T10:32:46.155Z,12.58
2019-04-21T10:38:42.627Z,12.15
2019-04-21T10:41:25.555Z,12.60
2019-04-21T10:44:09.369Z,11.48
2019-04-21T10:46:54.104Z,13.13
2019-04-21T10:49:40.784Z,12.95
2019-04-21T10:52:32.445Z,12.58
2019-04-21T10:58:11.051Z,13.13
2019-04-21T11:01:00.035Z,12.43
2019-04-21T11:06:39.095Z,11.20
2019-04-21T11:09:28.369Z,11.78
2019-04-21T11:12:31.711Z,11.25
2019-04-21T11:21:29.082Z,11.83
2019-04-21T11:24:24.941Z,11.95
2019-04-21T11:27:15.163Z,11.85
2019-04-21T11:29:59.836Z,12.82
2019-04-21T11:32:44.958Z,12.68
2019-04-21T11:35:27.685Z,11.05
2019-04-21T11:38:19.027Z,10.78
2019-04-21T11:41:05.546Z,10.82
2019-04-21T11:43:48.863Z,9.15
2019-04-21T11:46:20.583Z,8.80
2019-04-21T11:49:06.230Z,9.65
2019-04-21T11:52:09.077Z,10.03
2019-04-21T11:54:44.694Z,10.08
2019-04-21T11:57:34.963Z,10.28
2019-04-21T12:00:15.589Z,9.80
2019-04-21T12:02:59.582Z,9.85
2019-04-21T12:05:43.504Z,9.50
2019-04-21T12:08:36.471Z,8.73
2019-04-21T12:11:13.779Z,8.00
2019-04-21T12:13:56.566Z,8.70
2019-04-21T12:16:41.094Z,8.83
2019-04-21T12:19:27.153Z,9.15
2019-04-21T12:22:21.031Z,9.00
2019-04-21T12:24:57.410Z,9.00
2019-04-21T12:27:41.686Z,8.10
2019-04-21T12:30:27.272Z,8.73
2019-04-21T12:33:36.226Z,8.20
2019-04-21T12:36:31.751Z,7.95
2019-04-21T12:39:30.537Z,8.33
2019-04-21T12:42:22.781Z,8.38
2019-04-21T12:45:05.755Z,7.92
2019-04-21T12:47:50.691Z,8.58
2019-04-21T12:50:34.089Z,9.55
2019-04-21T12:53:17.881Z,9.03
2019-04-21T12:56:02.158Z,8.65
2019-04-21T12:58:51.237Z,8.83
2019-04-21T13:04:43.921Z,8.30
2019-04-21T13:07:33.203Z,9.28
2019-04-21T13:13:35.695Z,8.90
2019-04-21T13:16:35.397Z,8.98
2019-04-21T13:22:21.711Z,8.28
2019-04-21T13:28:28.336Z,7.72
2019-04-21T13:31:12.529Z,8.75
2019-04-21T13:34:04.068Z,8.93
2019-04-21T13:40:25.219Z,9.00
2019-04-21T13:43:10.708Z,8.48
2019-04-21T13:45:53.973Z,9.30
2019-04-21T13:48:36.856Z,9.15
2019-04-21T13:51:20.054Z,9.13
2019-04-21T13:54:02.381Z,9.23
2019-04-21T13:56:45.015Z,10.38
2019-04-21T13:59:29.183Z,9.20
2019-04-21T14:02:11.303Z,8.38
2019-04-21T14:04:53.974Z,8.95
2019-04-21T14:07:36.428Z,8.35
2019-04-21T14:10:19.982Z,9.53
2019-04-21T14:13:06.863Z,9.78
2019-04-21T14:15:53.862Z,9.65
2019-04-21T14:18:38.475Z,9.53
2019-04-21T14:21:23.228Z,9.40
2019-04-21T14:24:09.053Z,8.60
2019-04-21T14:26:52.199Z,9.45
2019-04-21T14:29:35.475Z,9.18
2019-04-21T14:32:18.241Z,9.28
2019-04-21T14:35:09.092Z,9.85
2019-04-21T14:38:18.522Z,9.50
2019-04-21T14:41:03.980Z,9.53
2019-04-21T14:43:55.152Z,9.38
2019-04-21T14:56:11.460Z,10.23
2019-04-21T14:58:57.296Z,9.58
2019-04-21T15:01:40.055Z,9.08
2019-04-21T15:04:24.043Z,9.05
2019-04-21T15:10:04.687Z,8.53
2019-04-21T15:12:43.546Z,8.95
2019-04-21T15:15:25.696Z,8.18
2019-04-21T15:18:11.048Z,9.50
2019-04-21T15:20:55.175Z,8.20
2019-04-21T15:23:38.224Z,8.95
2019-04-21T15:29:17.106Z,9.20
2019-04-21T15:32:00.890Z,8.93
2019-04-21T15:37:37.835Z,8.75
2019-04-21T15:40:39.460Z,8.73
2019-04-21T15:43:10.751Z,7.25
2019-04-21T15:45:54.853Z,8.05
2019-04-21T15:51:22.031Z,7.65
2019-04-21T15:54:04.888Z,8.48
2019-04-21T16:02:48.770Z,9.10
2019-04-21T16:05:31.037Z,7.80
2019-04-21T16:11:13.640Z,7.45
2019-04-21T16:13:57.451Z,8.00
2019-04-21T16:16:43.267Z,8.48
2019-04-21T16:19:29.360Z,7.78
2019-04-21T16:22:12.825Z,8.45
2019-04-21T16:24:55.456Z,8.28
2019-04-21T16:30:28.586Z,7.58
2019-04-21T16:33:16.317Z,8.20
2019-04-21T16:36:01.972Z,8.45
2019-04-21T16:38:44.487Z,7.50
2019-04-21T16:41:26.857Z,7.33
2019-04-21T16:44:11.587Z,7.87
2019-04-21T16:46:55.656Z,7.28
2019-04-21T16:49:45.533Z,7.83
2019-04-21T16:58:28.299Z,8.18
2019-04-21T17:01:14.909Z,7.90
2019-04-21T17:22:39.575Z,7.62
2019-04-21T17:28:25.737Z,7.67
2019-04-21T17:31:10.858Z,8.20
2019-04-21T17:34:03.708Z,7.13
2019-04-21T17:36:45.382Z,8.30
2019-04-21T17:39:31.832Z,7.30
2019-04-21T17:42:13.971Z,7.53
2019-04-21T17:45:03.609Z,7.60
2019-04-21T17:48:15.917Z,6.97
2019-04-21T17:51:15.056Z,6.40
2019-04-21T17:54:33.804Z,6.70
2019-04-21T18:00:57.683Z,7.47
2019-04-21T18:03:07.672Z,7.00
2019-04-21T18:05:50.571Z,6.87
2019-04-21T18:08:40.175Z,7.17
2019-04-21T18:11:18.120Z,7.20
2019-04-21T18:13:55.572Z,6.47
2019-04-21T18:16:42.761Z,6.23
2019-04-21T18:28:02.898Z,6.30
2019-04-21T18:30:46.791Z,6.40
2019-04-21T18:33:38.900Z,6.70
2019-04-21T18:40:06.893Z,6.83
2019-04-21T18:46:22.882Z,7.60
2019-04-21T18:49:09.210Z,8.53
2019-04-21T18:52:16.884Z,8.37
2019-04-21T18:57:58.984Z,7.57
2019-04-21T19:13:20.498Z,7.47
2019-04-21T19:15:48.396Z,8.63
2019-04-21T19:21:20.450Z,8.90
2019-04-21T19:30:50.163Z,7.93
2019-04-21T19:33:31.709Z,8.57
2019-04-21T19:39:52.771Z,7.70
2019-04-21T19:49:40.044Z,9.87
2019-04-21T19:55:09.794Z,13.17
2019-04-21T19:57:56.760Z,13.33
2019-04-21T20:00:40.523Z,9.80
2019-04-21T20:03:28.514Z,13.27
2019-04-21T20:13:07.395Z,12.33
2019-04-21T20:15:50.918Z,12.03
2019-04-21T20:18:26.246Z,9.60
2019-04-21T20:21:03.911Z,11.37
2019-04-21T20:23:56.481Z,11.90
2019-04-21T20:27:09.226Z,13.43
2019-04-21T20:30:25.961Z,19.37
2019-04-21T20:36:15.000Z,24.77
2019-04-21T20:38:53.530Z,32.03
2019-04-21T20:41:44.248Z,25.27
2019-04-21T20:44:45.887Z,20.03
2019-04-21T20:50:14.123Z,14.23
2019-04-21T20:53:00.010Z,13.33
2019-04-21T20:55:37.963Z,15.37
2019-04-21T20:58:28.493Z,12.23
2019-04-21T21:04:29.598Z,9.80
2019-04-21T21:16:53.456Z,10.53
2019-04-21T21:19:39.744Z,10.23
2019-04-21T21:22:41.476Z,10.20
2019-04-21T21:25:44.708Z,10.27
2019-04-21T21:45:45.119Z,9.60
2019-04-21T21:52:04.471Z,10.40
2019-04-21T21:54:40.113Z,10.97
2019-04-21T21:57:28.425Z,10.30
2019-04-21T22:00:19.247Z,12.33
2019-04-21T22:03:14.748Z,11.53
2019-04-21T22:06:01.949Z,11.77
2019-04-21T22:08:50.302Z,10.67
2019-04-21T22:19:04.484Z,11.83
2019-04-21T22:28:33.761Z,12.80
2019-04-21T22:34:35.956Z,12.87
2019-04-21T22:37:35.270Z,12.60
2019-04-21T22:40:16.686Z,12.30
2019-04-21T23:14:17.134Z,12.90
2019-04-21T23:17:29.803Z,13.17
2019-04-21T23:20:10.234Z,13.20
2019-04-21T23:23:13.107Z,13.50
2019-04-21T23:28:51.294Z,13.43
2019-04-21T23:31:39.875Z,14.00
2019-04-21T23:34:10.854Z,13.30
2019-04-21T23:37:08.895Z,13.87
2019-04-21T23:40:15.887Z,14.67
2019-04-21T23:42:45.285Z,15.27
2019-04-21T23:45:34.022Z,14.33
2019-04-21T23:48:38.978Z,15.07
2019-04-21T23:51:31.432Z,15.03
2019-04-21T23:57:11.064Z,16.53
2019-04-21T23:59:53.379Z,14.93
